Time;durP1;ratioP1;P1;durP2;ratioP2;P2;SDS_P1;SDS_P2;PMS_P1;PMS_P2;Temp;Humidity;BMP_temperature;BMP_pressure;BME280_temperature;BME280_humidity;BME280_pressure;Samples;Min_cycle;Max_cycle;Signal;HPM_P1;HPM_P2
2021/06/22 00:01:06;;;;;;;14.38;5.55;;;15.20;99.90;;;;;;5048218;28;20203;-72
2021/06/22 00:03:33;;;;;;;10.88;5.55;;;15.20;99.90;;;;;;5050679;28;20214;-72
2021/06/22 00:06:00;;;;;;;8.23;5.18;;;15.20;99.90;;;;;;5049464;28;20642;-71
2021/06/22 00:08:27;;;;;;;13.07;5.55;;;15.10;99.90;;;;;;5051148;28;20210;-71
2021/06/22 00:10:54;;;;;;;8.90;6.45;;;15.20;99.90;;;;;;5051404;28;20203;-73
2021/06/22 00:13:24;;;;;;;11.30;5.60;;;15.20;99.90;;;;;;5052183;28;20207;-71
2021/06/22 00:15:53;;;;;;;7.60;5.47;;;15.20;99.90;;;;;;5044389;28;20227;-74
2021/06/22 00:18:20;;;;;;;13.63;6.40;;;15.10;99.90;;;;;;5043141;28;20599;-74
2021/06/22 00:20:47;;;;;;;7.72;4.90;;;15.10;99.90;;;;;;5051850;28;20226;-74
2021/06/22 00:23:15;;;;;;;16.10;6.70;;;15.10;99.90;;;;;;5051136;28;20235;-74
2021/06/22 00:25:42;;;;;;;11.65;5.93;;;15.10;99.90;;;;;;5051840;28;20211;-72
2021/06/22 00:28:09;;;;;;;12.27;6.07;;;15.20;99.90;;;;;;5051243;28;20200;-73
2021/06/22 00:30:37;;;;;;;13.25;5.75;;;15.10;99.90;;;;;;5051060;28;20210;-74
2021/06/22 00:33:06;;;;;;;7.78;4.45;;;15.10;99.90;;;;;;5050730;28;20681;-73
2021/06/22 00:35:33;;;;;;;8.85;5.97;;;15.10;99.90;;;;;;5051541;28;20200;-73
2021/06/22 00:38:00;;;;;;;9.90;6.88;;;15.20;99.90;;;;;;5049173;28;20203;-72
2021/06/22 00:40:27;;;;;;;12.93;5.75;;;15.20;99.90;;;;;;5050845;28;20200;-73
2021/06/22 00:42:55;;;;;;;5.78;4.80;;;15.20;99.90;;;;;;5049717;28;20251;-72
2021/06/22 00:45:29;;;;;;;12.40;5.40;;;15.20;99.90;;;;;;5048167;28;20231;-72
2021/06/22 00:47:56;;;;;;;8.05;6.15;;;15.20;99.90;;;;;;5051229;28;20199;-71
2021/06/22 00:50:26;;;;;;;10.13;5.30;;;15.20;99.90;;;;;;5046896;28;20199;-74
2021/06/22 00:52:53;;;;;;;9.50;5.63;;;15.20;99.90;;;;;;5050989;28;20223;-73
2021/06/22 00:55:30;;;;;;;12.20;6.07;;;15.20;99.90;;;;;;5051254;28;20199;-72
2021/06/22 00:58:00;;;;;;;10.45;5.40;;;15.20;99.90;;;;;;5046964;28;20202;-73
2021/06/22 01:00:27;;;;;;;10.25;6.00;;;15.20;99.90;;;;;;5044689;28;20196;-74
2021/06/22 01:02:55;;;;;;;9.45;5.13;;;15.20;99.90;;;;;;5041574;28;20219;-73
2021/06/22 01:05:23;;;;;;;15.15;5.38;;;15.20;99.90;;;;;;5048432;28;20286;-73
2021/06/22 01:07:54;;;;;;;10.05;5.55;;;15.20;99.90;;;;;;5055463;28;20683;-73
2021/06/22 01:10:23;;;;;;;10.77;5.85;;;15.20;99.90;;;;;;5052343;28;20555;-74
2021/06/22 01:12:50;;;;;;;10.98;4.18;;;15.20;99.90;;;;;;5055431;28;20696;-72
2021/06/22 01:15:20;;;;;;;7.78;4.65;;;15.20;99.90;;;;;;5054411;28;20203;-73
2021/06/22 01:17:47;;;;;;;8.02;4.82;;;15.20;99.90;;;;;;5055078;28;20207;-72
2021/06/22 01:20:15;;;;;;;9.10;5.07;;;15.20;99.90;;;;;;5053951;28;20214;-72
2021/06/22 01:22:48;;;;;;;11.32;4.45;;;15.20;99.90;;;;;;5048954;28;20231;-72
2021/06/22 01:25:15;;;;;;;6.85;5.22;;;15.20;99.90;;;;;;5048938;28;20195;-72
2021/06/22 01:27:43;;;;;;;9.95;5.80;;;15.20;99.90;;;;;;5053136;28;20658;-73
2021/06/22 01:30:12;;;;;;;10.70;5.40;;;15.20;99.90;;;;;;5053381;28;20207;-72
2021/06/22 01:32:39;;;;;;;4.97;3.63;;;15.20;99.90;;;;;;5053986;28;20234;-72
2021/06/22 01:35:08;;;;;;;10.10;4.97;;;15.30;99.90;;;;;;5054546;28;20668;-72
2021/06/22 01:37:35;;;;;;;7.70;4.97;;;15.30;99.90;;;;;;5054465;28;20210;-74
2021/06/22 01:40:08;;;;;;;15.65;5.18;;;15.30;99.90;;;;;;5053853;28;20207;-72
2021/06/22 01:42:37;;;;;;;12.40;4.82;;;15.30;99.90;;;;;;5054073;28;20219;-72
2021/06/22 01:45:06;;;;;;;11.45;5.55;;;15.30;99.90;;;;;;5053744;28;20606;-72
2021/06/22 01:47:33;;;;;;;9.80;4.85;;;15.30;99.90;;;;;;5053914;28;20210;-73
2021/06/22 01:50:02;;;;;;;10.93;6.18;;;15.30;99.90;;;;;;5053890;28;20289;-75
2021/06/22 01:52:29;;;;;;;15.77;6.57;;;15.30;99.90;;;;;;5054107;28;20216;-74
2021/06/22 01:55:39;;;;;;;12.38;5.63;;;15.30;99.90;;;;;;5054795;28;20201;-74
2021/06/22 01:58:07;;;;;;;8.32;5.38;;;15.30;99.90;;;;;;5051918;28;20200;-73
2021/06/22 02:00:35;;;;;;;8.38;5.22;;;15.30;99.90;;;;;;5050436;28;20203;-72
2021/06/22 02:03:03;;;;;;;14.75;5.57;;;15.30;99.90;;;;;;5052928;28;20666;-73
2021/06/22 02:05:30;;;;;;;9.00;4.95;;;15.20;99.90;;;;;;5053789;28;20211;-73
2021/06/22 02:07:57;;;;;;;14.68;7.00;;;15.20;99.90;;;;;;5054089;28;20226;-72
2021/06/22 02:10:24;;;;;;;13.13;5.53;;;15.20;99.90;;;;;;5045061;28;20645;-72
2021/06/22 02:12:53;;;;;;;13.50;7.05;;;15.20;99.90;;;;;;5053865;28;20222;-73
2021/06/22 02:15:22;;;;;;;9.20;6.10;;;15.20;99.90;;;;;;5052730;28;20219;-73
2021/06/22 02:17:50;;;;;;;22.38;7.43;;;15.30;99.90;;;;;;5054139;28;20207;-73
2021/06/22 02:20:18;;;;;;;15.68;6.22;;;15.20;99.90;;;;;;5053082;28;20257;-73
2021/06/22 02:22:45;;;;;;;8.80;5.25;;;15.20;99.90;;;;;;5053647;28;20223;-73
2021/06/22 02:25:13;;;;;;;10.05;5.78;;;15.20;99.90;;;;;;5048453;28;20207;-73
2021/06/22 02:27:41;;;;;;;10.38;5.95;;;15.20;99.90;;;;;;5053328;28;20298;-73
2021/06/22 02:30:13;;;;;;;12.98;6.22;;;15.20;99.90;;;;;;5051522;28;20215;-73
2021/06/22 02:32:41;;;;;;;11.63;5.15;;;15.20;99.90;;;;;;5053516;28;20220;-73
2021/06/22 02:35:12;;;;;;;9.18;5.53;;;15.10;99.90;;;;;;5053694;28;20203;-73
2021/06/22 02:37:41;;;;;;;14.50;7.25;;;15.10;99.90;;;;;;5053668;28;20202;-73
2021/06/22 02:40:10;;;;;;;11.43;6.80;;;15.20;99.90;;;;;;5052862;28;20215;-74
2021/06/22 02:42:37;;;;;;;14.82;6.95;;;15.20;99.90;;;;;;5049845;28;20234;-74
2021/06/22 02:45:06;;;;;;;12.52;7.07;;;15.10;99.90;;;;;;5053978;28;20203;-74
2021/06/22 02:47:35;;;;;;;7.43;5.75;;;15.10;99.90;;;;;;5048005;28;20204;-73
2021/06/22 02:50:02;;;;;;;10.68;6.47;;;15.10;99.90;;;;;;5051474;28;20208;-74
2021/06/22 02:52:29;;;;;;;8.80;7.65;;;15.20;99.90;;;;;;5053290;28;20227;-74
2021/06/22 02:54:56;;;;;;;16.92;6.72;;;15.10;99.90;;;;;;5053890;28;20203;-74
2021/06/22 02:57:23;;;;;;;14.23;7.75;;;15.10;99.90;;;;;;5053299;28;20200;-75
2021/06/22 02:59:51;;;;;;;12.50;6.90;;;15.10;99.90;;;;;;5052752;28;20207;-74
2021/06/22 03:02:19;;;;;;;13.55;7.60;;;15.00;99.90;;;;;;5052447;28;20231;-74
2021/06/22 03:04:47;;;;;;;14.55;8.02;;;15.00;99.90;;;;;;5052840;28;20298;-74
2021/06/22 03:07:14;;;;;;;15.00;8.15;;;15.00;99.90;;;;;;5052721;28;20692;-74
2021/06/22 03:09:42;;;;;;;16.40;8.55;;;15.00;99.90;;;;;;5052562;28;20210;-74
2021/06/22 03:12:10;;;;;;;13.55;6.65;;;14.90;99.90;;;;;;5052608;28;20671;-73
2021/06/22 03:14:37;;;;;;;11.88;7.28;;;15.00;99.90;;;;;;5052871;28;20206;-73
2021/06/22 03:17:04;;;;;;;11.30;7.95;;;15.00;99.90;;;;;;5048439;28;20203;-75
2021/06/22 03:19:31;;;;;;;12.02;7.63;;;14.90;99.90;;;;;;5052152;28;20273;-74
2021/06/22 03:22:00;;;;;;;12.57;8.20;;;14.90;99.90;;;;;;5052260;28;20255;-75
2021/06/22 03:24:27;;;;;;;11.85;7.70;;;14.90;99.90;;;;;;5038770;28;20513;-74
2021/06/22 03:26:55;;;;;;;10.60;6.28;;;14.90;99.90;;;;;;5052725;28;20567;-74
2021/06/22 03:29:24;;;;;;;14.73;9.10;;;15.00;99.90;;;;;;5051689;28;20227;-76
2021/06/22 03:31:51;;;;;;;12.20;8.13;;;15.00;99.90;;;;;;5052230;28;20258;-75
2021/06/22 03:34:19;;;;;;;16.40;7.13;;;15.00;99.90;;;;;;5052387;28;20203;-75
2021/06/22 03:36:46;;;;;;;20.83;8.80;;;15.00;99.90;;;;;;5052736;28;20681;-74
2021/06/22 03:39:14;;;;;;;15.07;8.85;;;15.00;99.90;;;;;;5052198;28;20207;-74
2021/06/22 03:41:41;;;;;;;10.80;6.85;;;15.00;99.90;;;;;;5052075;28;20215;-74
2021/06/22 03:44:09;;;;;;;17.05;7.10;;;15.00;99.90;;;;;;5052526;28;20219;-74
2021/06/22 03:46:36;;;;;;;9.95;6.80;;;15.00;99.90;;;;;;5051916;28;20670;-75
2021/06/22 03:49:04;;;;;;;13.60;7.13;;;15.10;99.90;;;;;;5052269;28;20210;-73
2021/06/22 03:51:31;;;;;;;9.70;6.38;;;15.10;99.90;;;;;;5052588;28;20223;-75
2021/06/22 03:53:58;;;;;;;13.73;6.88;;;15.10;99.90;;;;;;5052769;28;20202;-74
2021/06/22 03:56:32;;;;;;;15.90;7.53;;;15.20;99.90;;;;;;5049819;28;20655;-74
2021/06/22 03:58:59;;;;;;;17.00;7.25;;;15.30;99.90;;;;;;5050551;28;20195;-76
2021/06/22 04:01:27;;;;;;;10.75;6.25;;;15.50;99.90;;;;;;5069236;28;20231;-74
2021/06/22 04:03:54;;;;;;;15.20;5.20;;;15.60;99.90;;;;;;5062678;28;20589;-75
2021/06/22 04:06:24;;;;;;;8.68;5.43;;;15.70;99.90;;;;;;5054263;28;20202;-76
2021/06/22 04:08:51;;;;;;;11.95;5.82;;;15.80;99.90;;;;;;5053315;28;20580;-74
2021/06/22 04:11:18;;;;;;;14.07;5.50;;;15.90;99.90;;;;;;5052644;28;20235;-75
2021/06/22 04:13:47;;;;;;;10.63;4.93;;;16.00;99.90;;;;;;5045716;28;20193;-75
2021/06/22 04:16:14;;;;;;;13.77;5.30;;;16.10;99.90;;;;;;5050879;28;20211;-76
2021/06/22 04:18:41;;;;;;;5.10;3.80;;;16.10;99.90;;;;;;5046575;28;20211;-74
2021/06/22 04:21:09;;;;;;;16.95;4.65;;;16.20;99.90;;;;;;5049599;28;20232;-75
2021/06/22 04:23:36;;;;;;;7.10;4.50;;;16.60;99.90;;;;;;5051333;28;20220;-75
2021/06/22 04:26:03;;;;;;;7.72;4.32;;;17.10;99.90;;;;;;5052225;28;20297;-74
2021/06/22 04:28:31;;;;;;;11.30;4.80;;;17.40;99.90;;;;;;5050551;28;20272;-77
2021/06/22 04:30:59;;;;;;;10.85;4.30;;;17.50;99.90;;;;;;5051631;28;20214;-74
2021/06/22 04:33:27;;;;;;;12.65;4.47;;;17.30;99.90;;;;;;5047440;28;20196;-75
2021/06/22 04:35:54;;;;;;;9.10;4.50;;;17.10;99.90;;;;;;5051459;28;20660;-75
2021/06/22 04:38:23;;;;;;;5.68;3.97;;;16.80;99.90;;;;;;5053283;28;20620;-75
2021/06/22 04:40:50;;;;;;;11.52;4.90;;;16.70;99.90;;;;;;5056544;28;20239;-76
2021/06/22 04:43:17;;;;;;;8.00;4.35;;;16.50;99.90;;;;;;5052797;28;20236;-78
2021/06/22 04:45:44;;;;;;;8.23;4.45;;;16.40;99.90;;;;;;5056865;28;20200;-77
2021/06/22 04:48:14;;;;;;;14.52;5.90;;;16.40;99.90;;;;;;5052865;28;20227;-82
2021/06/22 04:50:41;;;;;;;8.98;4.05;;;16.30;99.90;;;;;;5053389;28;20281;-80
2021/06/22 04:53:09;;;;;;;9.70;3.75;;;16.20;99.90;;;;;;5052972;28;20224;-82
2021/06/22 04:55:36;;;;;;;8.68;3.70;;;16.20;99.90;;;;;;5050638;28;20199;-82
2021/06/22 04:58:05;;;;;;;11.23;3.97;;;16.20;99.90;;;;;;5056484;28;20200;-82
2021/06/22 05:00:33;;;;;;;18.17;4.90;;;16.00;99.90;;;;;;5057190;28;20223;-83
2021/06/22 05:03:00;;;;;;;11.55;3.58;;;16.20;99.90;;;;;;5055487;28;20228;-82
2021/06/22 05:05:29;;;;;;;6.90;3.38;;;16.30;99.90;;;;;;5061409;28;20211;-81
2021/06/22 05:07:56;;;;;;;7.35;3.42;;;16.40;99.90;;;;;;5059139;28;20196;-81
2021/06/22 05:10:23;;;;;;;14.00;4.85;;;16.40;99.90;;;;;;5058351;28;20193;-78
2021/06/22 05:12:51;;;;;;;11.48;4.25;;;16.60;99.90;;;;;;5055723;28;20308;-77
2021/06/22 05:15:18;;;;;;;10.07;3.60;;;16.90;99.90;;;;;;5053057;28;20561;-79
2021/06/22 05:17:45;;;;;;;12.87;3.60;;;17.60;99.90;;;;;;5055698;28;20449;-78
2021/06/22 05:20:13;;;;;;;9.33;3.50;;;18.10;99.90;;;;;;5054542;28;20448;-77
2021/06/22 05:22:41;;;;;;;8.57;4.33;;;18.60;99.90;;;;;;5054924;28;20478;-78
2021/06/22 05:25:10;;;;;;;10.37;3.87;;;19.20;99.90;;;;;;5046933;28;20454;-76
2021/06/22 05:27:37;;;;;;;12.50;3.77;;;19.30;99.90;;;;;;5054713;28;20438;-77
2021/06/22 05:30:05;;;;;;;7.63;3.30;;;19.40;99.90;;;;;;5052631;28;20453;-79
2021/06/22 05:32:32;;;;;;;7.40;3.80;;;19.40;99.90;;;;;;5050874;28;20941;-76
2021/06/22 05:35:00;;;;;;;11.53;4.90;;;19.30;99.90;;;;;;5054658;28;20867;-76
2021/06/22 05:37:27;;;;;;;10.30;3.60;;;19.90;99.90;;;;;;5054236;28;20440;-77
2021/06/22 05:39:55;;;;;;;11.23;3.00;;;20.60;99.90;;;;;;5048058;28;20781;-77
2021/06/22 05:42:23;;;;;;;10.53;3.30;;;20.70;99.90;;;;;;5053516;28;20450;-78
2021/06/22 05:44:50;;;;;;;11.57;3.10;;;20.50;98.90;;;;;;5054090;28;20988;-77
2021/06/22 05:47:17;;;;;;;6.17;2.73;;;20.50;99.20;;;;;;5054558;28;20463;-78
2021/06/22 05:49:44;;;;;;;15.13;4.20;;;20.70;98.70;;;;;;5052606;28;20450;-78
2021/06/22 05:52:12;;;;;;;10.87;3.47;;;20.70;98.50;;;;;;5054861;28;20461;-79
2021/06/22 05:54:40;;;;;;;6.60;3.13;;;20.60;97.60;;;;;;5054281;28;20434;-75
2021/06/22 05:57:09;;;;;;;8.40;3.23;;;20.50;98.20;;;;;;5053567;28;20438;-74
2021/06/22 05:59:37;;;;;;;13.40;3.17;;;20.30;98.30;;;;;;5049423;28;20469;-76
2021/06/22 06:02:04;;;;;;;10.20;3.00;;;20.80;98.60;;;;;;5053895;28;21002;-71
2021/06/22 06:04:32;;;;;;;7.07;3.67;;;21.50;97.20;;;;;;5053554;28;20546;-71
2021/06/22 06:06:59;;;;;;;7.77;3.27;;;22.40;95.80;;;;;;5053952;28;20540;-71
2021/06/22 06:09:27;;;;;;;5.57;2.80;;;23.40;94.00;;;;;;5044800;28;20456;-71
2021/06/22 06:11:54;;;;;;;4.40;2.47;;;24.60;91.50;;;;;;5053382;28;20468;-71
2021/06/22 06:14:23;;;;;;;10.23;3.40;;;25.10;89.70;;;;;;5053649;28;20445;-72
2021/06/22 06:16:50;;;;;;;7.37;3.33;;;25.60;87.80;;;;;;5052360;28;20457;-69
2021/06/22 06:19:17;;;;;;;7.07;4.03;;;26.30;85.30;;;;;;5052839;28;20457;-73
2021/06/22 06:21:45;;;;;;;7.70;2.70;;;26.80;83.20;;;;;;5052675;28;20469;-73
2021/06/22 06:24:13;;;;;;;9.17;2.80;;;26.90;81.30;;;;;;5053971;28;20667;-71
2021/06/22 06:26:47;;;;;;;10.13;3.70;;;26.80;81.20;;;;;;5052841;28;20449;-70
2021/06/22 06:29:19;;;;;;;7.40;2.50;;;27.00;79.70;;;;;;5051268;28;20545;-72
2021/06/22 06:31:48;;;;;;;10.80;3.70;;;26.80;78.90;;;;;;5053152;28;20531;-73
2021/06/22 06:34:15;;;;;;;4.37;2.90;;;27.10;78.60;;;;;;5052968;28;20452;-71
2021/06/22 06:36:42;;;;;;;8.83;3.17;;;27.30;78.00;;;;;;5053350;28;20445;-70
2021/06/22 06:39:10;;;;;;;8.27;3.27;;;27.20;77.30;;;;;;5052711;28;20453;-71
2021/06/22 06:41:37;;;;;;;7.63;4.00;;;27.30;76.50;;;;;;5052489;28;20481;-72
2021/06/22 06:44:04;;;;;;;9.87;3.00;;;27.30;77.60;;;;;;5051486;28;20486;-69
2021/06/22 06:46:31;;;;;;;9.10;2.97;;;27.40;77.00;;;;;;5052592;28;20476;-69
2021/06/22 06:49:00;;;;;;;8.17;2.80;;;27.40;76.00;;;;;;5052593;28;20473;-70
2021/06/22 06:51:27;;;;;;;10.30;3.10;;;27.30;76.00;;;;;;5050533;28;20470;-74
2021/06/22 06:53:54;;;;;;;7.00;3.20;;;27.70;75.20;;;;;;5049168;28;20450;-73
2021/06/22 06:56:21;;;;;;;13.03;3.50;;;27.90;73.50;;;;;;5052861;28;20450;-75
2021/06/22 06:58:48;;;;;;;7.40;3.20;;;28.20;73.80;;;;;;5051010;28;20450;-72
2021/06/22 07:01:16;;;;;;;7.20;3.13;;;27.50;74.70;;;;;;5045459;28;20485;-71
2021/06/22 07:03:44;;;;;;;8.43;3.10;;;26.80;75.50;;;;;;5052736;28;20485;-72
2021/06/22 07:06:13;;;;;;;7.43;3.40;;;26.60;76.50;;;;;;5044080;28;20447;-73
2021/06/22 07:08:41;;;;;;;9.20;3.10;;;27.00;76.30;;;;;;5051863;28;20874;-74
2021/06/22 07:11:08;;;;;;;9.90;3.30;;;27.60;75.70;;;;;;5051841;28;20485;-73
2021/06/22 07:13:36;;;;;;;4.57;3.33;;;28.10;74.00;;;;;;5052404;28;20438;-72
2021/06/22 07:16:03;;;;;;;7.67;3.10;;;27.90;75.00;;;;;;5052895;28;20951;-71
2021/06/22 07:18:32;;;;;;;9.97;2.90;;;27.90;73.50;;;;;;5046577;28;20442;-71
2021/06/22 07:21:00;;;;;;;6.07;3.63;;;27.90;74.10;;;;;;5051815;28;20453;-74
2021/06/22 07:23:29;;;;;;;6.50;3.10;;;28.70;72.40;;;;;;5052445;28;20503;-72
2021/06/22 07:25:57;;;;;;;7.77;2.67;;;29.00;70.50;;;;;;5052532;28;20441;-73
2021/06/22 07:28:25;;;;;;;7.10;3.30;;;29.70;69.10;;;;;;5046735;28;20442;-72
2021/06/22 07:30:52;;;;;;;3.90;2.30;;;29.70;66.70;;;;;;5051533;28;20438;-73
2021/06/22 07:33:19;;;;;;;11.80;3.83;;;30.00;65.50;;;;;;5051966;28;20473;-70
2021/06/22 07:35:47;;;;;;;7.67;3.13;;;29.60;67.90;;;;;;5052108;28;20449;-73
2021/06/22 07:38:14;;;;;;;8.03;3.37;;;29.50;67.70;;;;;;5050969;28;20815;-72
2021/06/22 07:40:42;;;;;;;9.50;3.00;;;29.40;66.20;;;;;;5052237;28;20497;-71
2021/06/22 07:43:10;;;;;;;7.77;4.60;;;28.20;68.60;;;;;;5051377;28;20804;-71
2021/06/22 07:45:37;;;;;;;7.87;3.00;;;27.80;67.80;;;;;;5051758;28;20561;-71
2021/06/22 07:48:06;;;;;;;9.97;3.30;;;27.00;71.00;;;;;;5051641;28;20453;-72
2021/06/22 07:50:33;;;;;;;6.47;3.23;;;26.60;71.80;;;;;;5051557;28;20456;-71
2021/06/22 07:53:02;;;;;;;8.40;3.47;;;25.70;74.00;;;;;;5051032;28;20480;-71
2021/06/22 07:55:29;;;;;;;9.93;3.90;;;24.90;76.50;;;;;;5051909;28;20545;-71
2021/06/22 07:57:58;;;;;;;10.33;4.07;;;24.80;77.90;;;;;;5051043;28;20924;-70
2021/06/22 08:00:41;;;;;;;10.97;3.73;;;24.40;79.10;;;;;;5050932;28;20449;-72
2021/06/22 08:03:10;;;;;;;9.67;4.00;;;24.20;79.70;;;;;;5043029;28;20469;-73
2021/06/22 08:05:37;;;;;;;9.03;3.63;;;23.70;81.60;;;;;;5050264;28;20521;-72
2021/06/22 08:08:07;;;;;;;13.70;4.03;;;23.20;82.30;;;;;;5050942;28;20449;-72
2021/06/22 08:10:35;;;;;;;10.17;4.27;;;22.60;85.20;;;;;;5051262;28;20794;-70
2021/06/22 08:13:03;;;;;;;12.03;3.93;;;22.40;88.10;;;;;;5050521;28;20473;-69
2021/06/22 08:15:32;;;;;;;14.80;5.07;;;22.40;88.50;;;;;;5051265;28;20453;-69
2021/06/22 08:17:59;;;;;;;9.90;4.63;;;22.20;89.40;;;;;;5051464;28;20455;-70
2021/06/22 08:20:27;;;;;;;9.60;4.30;;;22.20;90.80;;;;;;5050323;28;20448;-71
2021/06/22 08:22:54;;;;;;;10.53;3.63;;;22.30;91.10;;;;;;5051855;28;20484;-73
2021/06/22 08:25:23;;;;;;;10.67;4.40;;;22.90;91.20;;;;;;5050955;28;20477;-70
2021/06/22 08:27:51;;;;;;;4.90;3.60;;;24.50;88.50;;;;;;5044343;28;20538;-72
2021/06/22 08:30:22;;;;;;;7.30;3.70;;;25.20;82.10;;;;;;5043356;28;20452;-73
2021/06/22 08:32:49;;;;;;;10.20;4.23;;;25.00;83.30;;;;;;5049238;28;21312;-70
2021/06/22 08:35:17;;;;;;;8.07;3.70;;;24.80;82.40;;;;;;5049688;28;20826;-71
2021/06/22 08:37:44;;;;;;;7.13;4.87;;;24.50;82.40;;;;;;5048877;28;20512;-70
2021/06/22 08:40:13;;;;;;;12.67;4.47;;;24.30;84.40;;;;;;5049173;28;20588;-69
2021/06/22 08:42:42;;;;;;;7.43;3.67;;;24.10;84.40;;;;;;5051033;28;20834;-70
2021/06/22 08:45:11;;;;;;;10.40;4.20;;;23.80;86.00;;;;;;5049898;28;20492;-73
2021/06/22 08:47:41;;;;;;;9.60;4.50;;;23.60;86.10;;;;;;5050641;28;20450;-70
2021/06/22 08:50:10;;;;;;;10.20;4.43;;;23.60;86.10;;;;;;5036144;28;20457;-73
2021/06/22 08:52:38;;;;;;;9.37;4.33;;;23.80;86.00;;;;;;5050317;28;20481;-70
2021/06/22 08:55:07;;;;;;;10.27;3.93;;;23.50;84.80;;;;;;5049855;28;20446;-72
2021/06/22 08:57:35;;;;;;;5.93;3.57;;;23.10;84.70;;;;;;5050576;28;20488;-72
2021/06/22 09:00:04;;;;;;;7.63;3.87;;;22.80;84.90;;;;;;5049889;28;20453;-68
2021/06/22 09:02:33;;;;;;;10.77;5.50;;;22.50;84.00;;;;;;5050537;28;20780;-73
2021/06/22 09:05:03;;;;;;;8.17;4.00;;;22.00;86.90;;;;;;5044011;28;20511;-70
2021/06/22 09:07:45;;;;;;;9.43;3.80;;;21.90;88.30;;;;;;5044605;28;20506;-71
2021/06/22 09:10:21;;;;;;;11.53;4.20;;;21.90;90.10;;;;;;5047839;28;20452;-70
2021/06/22 09:12:49;;;;;;;13.27;4.83;;;22.20;90.40;;;;;;5050072;28;20457;-71
2021/06/22 09:15:26;;;;;;;12.70;4.30;;;22.60;87.00;;;;;;5046721;28;20792;-72
2021/06/22 09:17:54;;;;;;;6.23;3.30;;;22.90;88.00;;;;;;5050752;28;20520;-69
2021/06/22 09:20:38;;;;;;;9.27;3.70;;;23.20;86.60;;;;;;5042150;28;20438;-72
2021/06/22 09:23:13;;;;;;;7.37;3.63;;;23.60;86.40;;;;;;5050290;28;20515;-73
2021/06/22 09:25:41;;;;;;;5.53;2.90;;;24.00;86.40;;;;;;5049074;28;20572;-71
2021/06/22 09:28:09;;;;;;;7.40;3.10;;;23.60;83.00;;;;;;5054265;28;20565;-75
2021/06/22 09:30:49;;;;;;;11.20;4.47;;;23.20;83.40;;;;;;5054302;28;20791;-68
2021/06/22 09:33:24;;;;;;;8.03;3.23;;;22.90;86.10;;;;;;5053331;28;20488;-74
2021/06/22 09:36:00;;;;;;;6.17;3.13;;;22.80;87.10;;;;;;5032096;28;20448;-70
2021/06/22 09:38:36;;;;;;;3.93;3.40;;;22.80;86.50;;;;;;5053305;28;20882;-72
2021/06/22 09:41:09;;;;;;;8.93;3.00;;;22.80;85.80;;;;;;5053470;28;20449;-71
2021/06/22 09:43:42;;;;;;;4.80;3.17;;;23.20;86.20;;;;;;5054677;28;20793;-71
2021/06/22 09:46:10;;;;;;;8.20;3.33;;;24.60;83.80;;;;;;5053638;28;20481;-72
2021/06/22 09:48:53;;;;;;;7.23;3.40;;;26.20;79.40;;;;;;5045776;28;20442;-74
2021/06/22 09:51:30;;;;;;;4.80;3.57;;;26.50;74.10;;;;;;5050760;28;20857;-72
2021/06/22 09:54:09;;;;;;;9.87;3.50;;;26.40;74.60;;;;;;5050505;28;20788;-71
2021/06/22 09:56:36;;;;;;;9.13;3.93;;;25.80;76.20;;;;;;5053543;28;20446;-72
2021/06/22 09:59:08;;;;;;;5.53;3.10;;;25.50;76.00;;;;;;5049396;28;20947;-69
2021/06/22 10:01:37;;;;;;;8.23;3.70;;;24.90;77.80;;;;;;5046468;28;20446;-73
2021/06/22 10:04:16;;;;;;;6.10;3.50;;;24.40;78.70;;;;;;5053111;28;20892;-71
2021/06/22 10:06:50;;;;;;;5.43;3.30;;;24.60;79.60;;;;;;5048395;28;20446;-72
2021/06/22 10:09:27;;;;;;;10.57;4.20;;;25.50;76.90;;;;;;5053096;28;20839;-71
2021/06/22 10:12:03;;;;;;;9.53;4.23;;;25.70;75.60;;;;;;5043063;28;20538;-72
2021/06/22 10:14:32;;;;;;;6.23;4.33;;;25.20;77.70;;;;;;5047547;28;20768;-70
2021/06/22 10:17:02;;;;;;;9.70;3.37;;;24.50;80.40;;;;;;5053189;28;20549;-73
2021/06/22 10:19:30;;;;;;;8.20;4.93;;;24.10;81.60;;;;;;5052758;28;20457;-71
2021/06/22 10:22:05;;;;;;;5.77;3.57;;;23.70;82.20;;;;;;5049311;28;20464;-73
2021/06/22 10:24:32;;;;;;;5.47;4.00;;;23.50;82.80;;;;;;5053114;28;20450;-70
2021/06/22 10:27:01;;;;;;;7.20;3.20;;;23.40;83.30;;;;;;5052836;28;20450;-72
2021/06/22 10:29:30;;;;;;;8.77;3.40;;;23.40;82.30;;;;;;5052299;28;20480;-72
2021/06/22 10:31:59;;;;;;;9.63;3.97;;;23.50;83.60;;;;;;5050100;28;20552;-72
2021/06/22 10:34:26;;;;;;;9.50;3.83;;;23.60;81.60;;;;;;5052613;28;20438;-72
2021/06/22 10:36:57;;;;;;;11.20;4.07;;;23.50;82.70;;;;;;5052057;28;20446;-73
2021/06/22 10:39:31;;;;;;;9.33;3.40;;;23.70;82.60;;;;;;5052190;28;20558;-71
2021/06/22 10:42:08;;;;;;;13.20;4.57;;;24.00;80.50;;;;;;5047086;28;20838;-73
2021/06/22 10:44:46;;;;;;;7.37;3.83;;;24.70;81.20;;;;;;5047945;28;20525;-71
2021/06/22 10:47:27;;;;;;;8.07;4.13;;;25.00;79.10;;;;;;5051328;28;20813;-73
2021/06/22 10:50:19;;;;;;;6.40;3.90;;;24.70;78.30;;;;;;5052334;28;20524;-74
2021/06/22 10:53:01;;;;;;;5.63;2.83;;;24.60;78.40;;;;;;5042655;28;20577;-72
2021/06/22 10:56:05;;;;;;;9.43;3.43;;;24.40;77.60;;;;;;5049848;28;20529;-72
2021/06/22 10:58:33;;;;;;;5.17;2.60;;;24.60;77.10;;;;;;5045888;28;20449;-70
2021/06/22 11:01:13;;;;;;;4.30;3.20;;;24.80;75.70;;;;;;5052273;28;20915;-72
2021/06/22 11:03:41;;;;;;;5.70;3.17;;;24.80;76.60;;;;;;5052918;28;20462;-75
2021/06/22 11:06:26;;;;;;;6.03;3.20;;;24.50;75.70;;;;;;5052394;28;20485;-71
2021/06/22 11:08:53;;;;;;;5.33;2.90;;;24.40;74.90;;;;;;5047911;28;20446;-70
2021/06/22 11:11:24;;;;;;;7.57;3.43;;;24.40;75.30;;;;;;5052121;28;20474;-73
2021/06/22 11:13:55;;;;;;;5.00;3.17;;;24.50;76.50;;;;;;5052611;28;20446;-74
2021/06/22 11:16:33;;;;;;;11.90;2.83;;;24.20;77.90;;;;;;5052358;28;20446;-72
2021/06/22 11:19:12;;;;;;;7.77;3.40;;;23.80;76.20;;;;;;5048976;28;20457;-73
2021/06/22 11:21:53;;;;;;;8.43;3.07;;;23.60;76.90;;;;;;5050546;28;20834;-73
2021/06/22 11:24:22;;;;;;;12.67;3.87;;;23.50;77.50;;;;;;5052887;28;20759;-72
2021/06/22 11:27:11;;;;;;;6.30;3.10;;;23.50;78.20;;;;;;5041147;28;20568;-72
2021/06/22 11:29:54;;;;;;;9.60;3.33;;;23.60;78.40;;;;;;5049244;28;20481;-71
2021/06/22 11:32:36;;;;;;;9.00;3.20;;;23.60;78.30;;;;;;5052024;28;20594;-71
2021/06/22 11:35:09;;;;;;;8.30;2.60;;;23.50;78.50;;;;;;5044675;28;20997;-70
2021/06/22 11:37:38;;;;;;;5.50;3.00;;;23.60;77.80;;;;;;5046143;28;20854;-71
2021/06/22 11:40:11;;;;;;;6.13;3.17;;;23.90;78.00;;;;;;5050283;28;20537;-70
2021/06/22 11:42:40;;;;;;;8.77;2.97;;;24.40;77.50;;;;;;5051502;28;20463;-69
2021/06/22 11:45:26;;;;;;;10.00;4.07;;;24.90;76.30;;;;;;5051574;28;20486;-70
2021/06/22 11:47:58;;;;;;;9.10;4.13;;;25.00;75.60;;;;;;5051535;28;20465;-73
2021/06/22 11:50:33;;;;;;;7.63;3.27;;;24.80;76.80;;;;;;5050702;28;20521;-71
2021/06/22 11:53:12;;;;;;;10.77;3.97;;;24.60;77.80;;;;;;5049519;28;20503;-71
2021/06/22 11:55:48;;;;;;;7.97;3.13;;;24.10;78.50;;;;;;5045504;28;20450;-69
2021/06/22 11:58:24;;;;;;;5.70;2.77;;;23.60;79.70;;;;;;5047469;28;20552;-69
2021/06/22 12:00:54;;;;;;;8.37;3.30;;;23.10;79.30;;;;;;5051050;28;20448;-72
2021/06/22 12:03:28;;;;;;;8.03;3.50;;;22.80;80.60;;;;;;5051530;28;20508;-72
2021/06/22 12:06:04;;;;;;;5.93;3.00;;;22.60;81.60;;;;;;5051860;28;20773;-72
2021/06/22 12:08:37;;;;;;;4.17;2.63;;;22.60;81.00;;;;;;5043512;28;20456;-72
2021/06/22 12:11:04;;;;;;;7.47;3.40;;;22.60;81.90;;;;;;5049862;28;20456;-72
2021/06/22 12:13:37;;;;;;;8.70;3.30;;;22.60;83.00;;;;;;5051501;28;20849;-72
2021/06/22 12:16:22;;;;;;;13.00;6.87;;;22.80;83.20;;;;;;5051999;28;20840;-70
2021/06/22 12:18:50;;;;;;;7.80;3.83;;;22.90;82.40;;;;;;5051064;28;20871;-74
2021/06/22 12:21:17;;;;;;;12.87;5.03;;;22.90;82.50;;;;;;5051347;28;20958;-73
2021/06/22 12:23:44;;;;;;;7.87;4.60;;;23.10;80.80;;;;;;5042528;28;20453;-70
2021/06/22 12:26:13;;;;;;;9.07;4.67;;;23.00;80.50;;;;;;5051559;28;20516;-70
2021/06/22 12:28:42;;;;;;;10.50;3.50;;;23.20;80.20;;;;;;5047206;28;20449;-73
2021/06/22 12:31:10;;;;;;;7.50;4.60;;;23.30;78.70;;;;;;5047176;28;20449;-71
2021/06/22 12:33:41;;;;;;;7.90;4.07;;;23.20;79.40;;;;;;5046877;28;20467;-70
2021/06/22 12:36:10;;;;;;;8.27;3.10;;;22.90;77.30;;;;;;5051096;28;20931;-74
2021/06/22 12:38:39;;;;;;;11.73;4.00;;;23.00;78.50;;;;;;5050916;28;20454;-73
2021/06/22 12:41:08;;;;;;;5.43;3.30;;;22.80;77.20;;;;;;5049436;28;20452;-70
2021/06/22 12:43:45;;;;;;;6.70;3.23;;;22.60;79.20;;;;;;5051576;28;20947;-71
2021/06/22 12:46:15;;;;;;;8.23;4.20;;;22.50;78.50;;;;;;5051163;28;20485;-73
2021/06/22 12:48:45;;;;;;;5.60;3.50;;;22.20;78.50;;;;;;5046808;28;20456;-73
2021/06/22 12:51:14;;;;;;;7.47;3.40;;;22.00;79.40;;;;;;5050859;28;20842;-72
2021/06/22 12:53:45;;;;;;;6.67;3.00;;;21.80;80.50;;;;;;5045570;28;20491;-72
2021/06/22 12:56:15;;;;;;;9.30;4.23;;;22.00;82.20;;;;;;5050908;28;20431;-72